createdAt,value
2023-04-20T00:00:40.663Z,100.00
2023-04-20T00:03:28.634Z,100.00
2023-04-20T00:06:15.801Z,100.00
2023-04-20T00:09:03.275Z,100.00
2023-04-20T00:11:50.260Z,100.00
2023-04-20T00:14:37.261Z,100.00
2023-04-20T00:17:24.245Z,100.00
2023-04-20T00:20:13.019Z,100.00
2023-04-20T00:22:59.930Z,100.00
2023-04-20T00:25:49.601Z,100.00
2023-04-20T00:28:36.535Z,100.00
2023-04-20T00:31:23.793Z,100.00
2023-04-20T00:34:11.098Z,100.00
2023-04-20T00:39:44.962Z,100.00
2023-04-20T00:42:32.099Z,100.00
2023-04-20T00:45:19.175Z,100.00
2023-04-20T00:48:06.737Z,100.00
2023-04-20T00:50:53.659Z,100.00
2023-04-20T00:53:41.205Z,100.00
2023-04-20T00:56:28.179Z,100.00
2023-04-20T00:59:15.824Z,100.00
2023-04-20T01:02:03.154Z,100.00
2023-04-20T01:04:50.165Z,100.00
2023-04-20T01:07:37.095Z,100.00
2023-04-20T01:10:24.088Z,100.00
2023-04-20T01:13:11.095Z,100.00
2023-04-20T01:16:00.475Z,100.00
2023-04-20T01:18:49.551Z,100.00
2023-04-20T01:21:36.736Z,100.00
2023-04-20T01:24:23.626Z,100.00
2023-04-20T01:27:10.549Z,100.00
2023-04-20T01:29:57.445Z,100.00
2023-04-20T01:32:44.849Z,100.00
2023-04-20T01:35:31.822Z,100.00
2023-04-20T01:38:22.787Z,100.00
2023-04-20T01:41:10.256Z,100.00
2023-04-20T01:43:57.241Z,100.00
2023-04-20T01:46:44.195Z,100.00
2023-04-20T01:49:31.361Z,100.00
2023-04-20T01:52:18.293Z,100.00
2023-04-20T01:55:05.961Z,100.00
2023-04-20T01:57:52.856Z,100.00
2023-04-20T02:00:39.888Z,100.00
2023-04-20T02:03:27.906Z,100.00
2023-04-20T02:06:15.224Z,100.00
2023-04-20T02:09:02.106Z,100.00
2023-04-20T02:11:49.017Z,100.00
2023-04-20T02:14:35.948Z,100.00
2023-04-20T02:17:22.952Z,100.00
2023-04-20T02:20:11.017Z,100.00
2023-04-20T02:22:57.948Z,100.00
2023-04-20T02:25:45.047Z,100.00
2023-04-20T02:28:31.978Z,100.00
2023-04-20T02:31:19.118Z,100.00
2023-04-20T02:34:09.322Z,100.00
2023-04-20T02:36:56.239Z,100.00
2023-04-20T02:39:43.379Z,100.00
2023-04-20T02:42:30.665Z,100.00
2023-04-20T02:45:17.709Z,100.00
2023-04-20T02:48:05.853Z,100.00
2023-04-20T02:50:55.485Z,100.00
2023-04-20T02:53:42.422Z,100.00
2023-04-20T02:56:29.339Z,100.00
2023-04-20T02:59:16.540Z,100.00
2023-04-20T03:02:04.131Z,100.00
2023-04-20T03:04:51.165Z,100.00
2023-04-20T03:07:38.157Z,100.00
2023-04-20T03:10:25.071Z,100.00
2023-04-20T03:13:12.031Z,100.00
2023-04-20T03:15:58.970Z,100.00
2023-04-20T03:18:45.896Z,100.00
2023-04-20T03:21:33.161Z,100.00
2023-04-20T03:24:20.421Z,100.00
2023-04-20T03:27:07.324Z,100.00
2023-04-20T03:29:54.307Z,100.00
2023-04-20T03:32:42.246Z,100.00
2023-04-20T03:35:29.210Z,100.00
2023-04-20T03:38:16.146Z,100.00
2023-04-20T03:41:03.192Z,100.00
2023-04-20T03:43:50.111Z,100.00
2023-04-20T03:46:37.161Z,100.00
2023-04-20T03:49:25.420Z,100.00
2023-04-20T03:52:12.381Z,100.00
2023-04-20T03:54:59.322Z,100.00
2023-04-20T03:57:46.193Z,100.00
2023-04-20T04:00:33.238Z,100.00
2023-04-20T04:03:20.755Z,100.00
2023-04-20T04:06:07.887Z,100.00
2023-04-20T04:08:54.868Z,100.00
2023-04-20T04:11:41.803Z,100.00
2023-04-20T04:14:30.272Z,100.00
2023-04-20T04:17:17.249Z,100.00
2023-04-20T04:20:08.133Z,100.00
2023-04-20T04:22:55.175Z,100.00
2023-04-20T04:25:42.327Z,100.00
2023-04-20T04:28:29.353Z,100.00
2023-04-20T04:31:18.308Z,100.00
2023-04-20T04:34:05.242Z,100.00
2023-04-20T04:36:52.634Z,100.00
2023-04-20T04:39:39.661Z,100.00
2023-04-20T04:42:27.659Z,100.00
2023-04-20T04:45:14.763Z,100.00
2023-04-20T04:48:03.149Z,100.00
2023-04-20T04:50:50.073Z,100.00
2023-04-20T04:53:37.218Z,100.00
2023-04-20T04:56:24.181Z,100.00
2023-04-20T04:59:11.219Z,100.00
2023-04-20T05:01:58.226Z,100.00
2023-04-20T05:04:45.678Z,100.00
2023-04-20T05:07:32.649Z,100.00
2023-04-20T05:10:19.607Z,100.00
2023-04-20T05:13:06.519Z,100.00
2023-04-20T05:15:53.457Z,100.00
2023-04-20T05:18:40.334Z,100.00
2023-04-20T05:21:27.539Z,100.00
2023-04-20T05:24:14.454Z,100.00
2023-04-20T05:27:01.744Z,100.00
2023-04-20T05:29:48.651Z,100.00
2023-04-20T05:32:35.580Z,100.00
2023-04-20T05:35:22.657Z,100.00
2023-04-20T05:38:09.582Z,100.00
2023-04-20T05:40:56.591Z,100.00
2023-04-20T05:43:43.540Z,100.00
2023-04-20T05:46:30.551Z,100.00
2023-04-20T05:49:17.696Z,100.00
2023-04-20T05:52:04.802Z,100.00
2023-04-20T05:54:51.807Z,100.00
2023-04-20T05:57:42.767Z,100.00
2023-04-20T06:00:29.649Z,100.00
2023-04-20T06:03:16.774Z,100.00
2023-04-20T06:06:04.293Z,100.00
2023-04-20T06:08:52.232Z,100.00
2023-04-20T06:11:39.173Z,100.00
2023-04-20T06:14:26.134Z,100.00
2023-04-20T06:17:13.133Z,100.00
2023-04-20T06:20:00.009Z,100.00
2023-04-20T06:22:47.147Z,100.00
2023-04-20T06:25:36.158Z,100.00
2023-04-20T06:28:23.289Z,100.00
2023-04-20T06:31:10.422Z,100.00
2023-04-20T06:33:57.429Z,100.00
2023-04-20T06:36:44.359Z,100.00
2023-04-20T06:39:31.405Z,100.00
2023-04-20T06:42:18.664Z,100.00
2023-04-20T06:45:06.682Z,100.00
2023-04-20T06:47:53.839Z,100.00
2023-04-20T06:50:40.858Z,99.82
2023-04-20T06:53:27.887Z,100.00
2023-04-20T06:56:15.033Z,99.84
2023-04-20T06:59:01.953Z,99.94
2023-04-20T07:01:48.914Z,100.00
2023-04-20T07:04:35.984Z,100.00
2023-04-20T07:07:23.026Z,100.00
2023-04-20T07:10:11.895Z,99.06
2023-04-20T07:12:58.973Z,99.99
2023-04-20T07:15:46.283Z,98.88
2023-04-20T07:18:35.240Z,100.00
2023-04-20T07:21:22.606Z,100.00
2023-04-20T07:24:09.707Z,99.75
2023-04-20T07:26:57.206Z,99.87
2023-04-20T07:29:44.240Z,98.36
2023-04-20T07:32:31.211Z,98.68
2023-04-20T07:35:18.436Z,98.51
2023-04-20T07:38:05.338Z,98.36
2023-04-20T07:40:52.249Z,98.34
2023-04-20T07:43:39.209Z,96.64
2023-04-20T07:46:26.772Z,96.16
2023-04-20T07:49:13.718Z,98.25
2023-04-20T07:52:12.816Z,97.84
2023-04-20T07:55:03.165Z,97.60
2023-04-20T07:57:51.198Z,97.98
2023-04-20T08:00:38.186Z,100.00
2023-04-20T08:03:27.366Z,98.99
2023-04-20T08:06:14.516Z,98.27
2023-04-20T08:09:01.447Z,98.53
2023-04-20T08:11:48.554Z,96.83
2023-04-20T08:14:35.607Z,96.47
2023-04-20T08:17:22.580Z,96.00
2023-04-20T08:20:10.721Z,95.53
2023-04-20T08:22:59.489Z,96.06
2023-04-20T08:25:46.514Z,96.31
2023-04-20T08:28:34.302Z,95.03
2023-04-20T08:31:21.355Z,96.20
2023-04-20T08:34:08.375Z,96.52
2023-04-20T08:36:55.548Z,95.92
2023-04-20T08:39:42.491Z,94.71
2023-04-20T08:42:29.492Z,95.14
2023-04-20T08:45:16.682Z,93.92
2023-04-20T08:48:07.904Z,94.87
2023-04-20T08:50:55.820Z,93.21
2023-04-20T08:53:42.860Z,92.98
2023-04-20T08:56:41.053Z,93.44
2023-04-20T08:59:28.168Z,93.46
2023-04-20T09:02:15.847Z,90.70
2023-04-20T09:05:06.980Z,91.15
2023-04-20T09:07:59.400Z,91.36
2023-04-20T09:10:46.384Z,91.36
2023-04-20T09:13:33.546Z,87.93
2023-04-20T09:16:20.567Z,88.50
2023-04-20T09:19:09.185Z,89.83
2023-04-20T09:22:01.213Z,87.31
2023-04-20T09:24:48.277Z,88.23
2023-04-20T09:27:35.264Z,88.04
2023-04-20T09:30:22.467Z,89.01
2023-04-20T09:33:12.087Z,87.66
2023-04-20T09:36:05.602Z,88.01
2023-04-20T09:39:25.179Z,87.74
2023-04-20T09:42:13.835Z,88.30
2023-04-20T09:45:01.900Z,88.10
2023-04-20T09:47:49.981Z,87.53
2023-04-20T09:50:48.658Z,87.93
2023-04-20T09:53:38.285Z,87.43
2023-04-20T09:56:26.789Z,87.86
2023-04-20T09:59:14.213Z,88.48
2023-04-20T10:02:01.291Z,88.22
2023-04-20T10:05:01.871Z,87.68
2023-04-20T10:08:00.733Z,88.26
2023-04-20T10:10:50.030Z,88.88
2023-04-20T10:13:37.916Z,87.49
2023-04-20T10:16:25.685Z,87.99
2023-04-20T10:19:13.428Z,86.58
2023-04-20T10:22:00.449Z,86.64
2023-04-20T10:24:47.360Z,84.75
2023-04-20T10:27:34.328Z,85.69
2023-04-20T10:30:22.565Z,86.82
2023-04-20T10:33:13.296Z,87.68
2023-04-20T10:36:00.433Z,86.76
2023-04-20T10:38:47.353Z,84.84
2023-04-20T10:41:34.296Z,85.63
2023-04-20T10:44:22.242Z,85.51
2023-04-20T10:47:09.191Z,83.43
2023-04-20T10:50:09.356Z,83.42
2023-04-20T10:52:56.263Z,83.72
2023-04-20T10:55:43.327Z,83.99
2023-04-20T10:58:30.304Z,85.30
2023-04-20T11:01:17.290Z,85.89
2023-04-20T11:04:04.668Z,86.23
2023-04-20T11:06:51.728Z,86.33
2023-04-20T11:09:39.317Z,86.62
2023-04-20T11:12:26.226Z,87.01
2023-04-20T11:15:13.915Z,86.02
2023-04-20T11:18:12.000Z,86.32
2023-04-20T11:20:59.104Z,86.90
2023-04-20T11:23:46.142Z,87.16
2023-04-20T11:26:40.782Z,86.78
2023-04-20T11:29:33.445Z,85.79
2023-04-20T11:32:20.704Z,85.20
2023-04-20T11:35:10.824Z,86.47
2023-04-20T11:37:58.790Z,86.88
2023-04-20T11:40:46.401Z,86.55
2023-04-20T11:43:34.848Z,87.23
2023-04-20T11:46:21.856Z,87.07
2023-04-20T11:49:08.785Z,87.68
2023-04-20T11:51:55.875Z,86.82
2023-04-20T11:54:43.071Z,86.32
2023-04-20T11:57:29.954Z,85.09
2023-04-20T12:00:18.231Z,85.92
2023-04-20T12:03:05.433Z,85.29
2023-04-20T12:05:52.616Z,85.12
2023-04-20T12:08:39.553Z,84.58
2023-04-20T12:11:26.855Z,84.95
2023-04-20T12:14:13.788Z,84.79
2023-04-20T12:17:04.642Z,84.53
2023-04-20T12:19:52.550Z,85.46
2023-04-20T12:22:39.498Z,85.17
2023-04-20T12:25:26.462Z,83.75
2023-04-20T12:28:13.824Z,83.69
2023-04-20T12:31:02.352Z,83.18
2023-04-20T12:33:49.343Z,82.96
2023-04-20T12:36:36.613Z,83.30
2023-04-20T12:39:24.191Z,82.16
2023-04-20T12:42:11.213Z,82.85
2023-04-20T12:44:58.176Z,83.67
2023-04-20T12:47:45.137Z,84.44
2023-04-20T12:50:32.446Z,85.00
2023-04-20T12:53:19.991Z,83.48
2023-04-20T12:56:07.581Z,83.72
2023-04-20T12:58:54.536Z,85.06
2023-04-20T13:01:41.445Z,85.49
2023-04-20T13:04:29.227Z,85.22
2023-04-20T13:07:16.319Z,84.70
2023-04-20T13:10:03.992Z,84.65
2023-04-20T13:12:53.990Z,85.14
2023-04-20T13:15:41.395Z,84.78
2023-04-20T13:18:28.456Z,85.01
2023-04-20T13:21:15.425Z,84.68
2023-04-20T13:24:02.377Z,84.63
2023-04-20T13:26:56.591Z,83.75
2023-04-20T13:29:43.696Z,84.35
2023-04-20T13:32:30.714Z,84.30
2023-04-20T13:35:18.546Z,83.46
2023-04-20T13:38:05.782Z,83.30
2023-04-20T13:40:52.769Z,83.53
2023-04-20T13:43:39.703Z,82.88
2023-04-20T13:46:26.796Z,83.53
2023-04-20T13:49:13.789Z,83.82
2023-04-20T13:52:00.749Z,83.41
2023-04-20T13:54:47.674Z,82.89
2023-04-20T13:57:34.713Z,82.68
2023-04-20T14:00:23.537Z,81.42
2023-04-20T14:03:10.882Z,82.31
2023-04-20T14:05:58.125Z,81.72
2023-04-20T14:08:45.069Z,81.82
2023-04-20T14:11:32.014Z,82.08
2023-04-20T14:14:19.216Z,81.53
2023-04-20T14:17:06.307Z,80.40
2023-04-20T14:19:53.316Z,79.93
2023-04-20T14:22:40.268Z,80.22
2023-04-20T14:25:27.336Z,80.82
2023-04-20T14:28:16.735Z,80.37
2023-04-20T14:31:03.900Z,80.66
2023-04-20T14:33:50.900Z,80.85
2023-04-20T14:36:37.819Z,81.02
2023-04-20T14:39:24.764Z,80.95
2023-04-20T14:42:13.163Z,81.90
2023-04-20T14:45:00.039Z,82.56
2023-04-20T14:47:46.999Z,81.37
2023-04-20T14:50:33.842Z,81.47
2023-04-20T14:53:21.608Z,82.62
2023-04-20T14:56:08.509Z,81.84
2023-04-20T14:58:57.190Z,81.62
2023-04-20T15:01:55.211Z,82.25
2023-04-20T15:04:49.154Z,81.40
2023-04-20T15:07:36.156Z,81.02
2023-04-20T15:10:23.436Z,80.96
2023-04-20T15:13:11.290Z,81.17
2023-04-20T15:15:58.294Z,81.28
2023-04-20T15:18:45.631Z,79.99
2023-04-20T15:21:32.593Z,79.33
2023-04-20T15:24:19.694Z,79.50
2023-04-20T15:27:07.711Z,78.47
2023-04-20T15:29:54.643Z,78.35
2023-04-20T15:32:41.720Z,79.23
2023-04-20T15:35:28.751Z,79.46
2023-04-20T15:38:16.463Z,79.35
2023-04-20T15:41:03.367Z,78.96
2023-04-20T15:43:51.296Z,79.19
2023-04-20T15:46:38.406Z,79.86
2023-04-20T15:49:25.446Z,80.52
2023-04-20T15:52:12.412Z,81.05
2023-04-20T15:54:59.385Z,80.76
2023-04-20T15:57:46.306Z,80.63
2023-04-20T16:00:33.227Z,80.87
2023-04-20T16:03:20.256Z,80.99
2023-04-20T16:06:07.746Z,80.80
2023-04-20T16:08:54.656Z,81.23
2023-04-20T16:11:41.615Z,80.88
2023-04-20T16:14:29.157Z,81.62
2023-04-20T16:17:16.269Z,81.99
2023-04-20T16:20:03.744Z,81.81
2023-04-20T16:22:50.678Z,81.83
2023-04-20T16:25:38.525Z,82.06
2023-04-20T16:28:26.391Z,81.82
2023-04-20T16:31:13.486Z,82.71
2023-04-20T16:34:01.102Z,81.60
2023-04-20T16:36:50.136Z,82.26
2023-04-20T16:39:37.415Z,81.20
2023-04-20T16:42:24.643Z,81.67
2023-04-20T16:45:11.873Z,81.99
2023-04-20T16:47:58.879Z,82.92
2023-04-20T16:50:45.952Z,82.63
2023-04-20T16:53:32.881Z,82.46
2023-04-20T16:56:19.841Z,81.53
2023-04-20T16:59:06.982Z,82.24
2023-04-20T17:01:54.237Z,82.08
2023-04-20T17:04:41.265Z,82.21
2023-04-20T17:07:29.202Z,82.39
2023-04-20T17:10:16.707Z,82.71
2023-04-20T17:13:04.193Z,82.24
2023-04-20T17:15:51.031Z,81.36
2023-04-20T17:18:41.192Z,81.19
2023-04-20T17:21:29.106Z,80.82
2023-04-20T17:24:16.237Z,80.28
2023-04-20T17:27:03.449Z,80.43
2023-04-20T17:29:51.685Z,80.49
2023-04-20T17:32:38.667Z,81.33
2023-04-20T17:35:25.831Z,80.94
2023-04-20T17:38:12.767Z,80.86
2023-04-20T17:40:59.699Z,80.33
2023-04-20T17:43:46.601Z,81.93
2023-04-20T17:46:33.508Z,81.47
2023-04-20T17:49:20.529Z,82.00
2023-04-20T17:52:09.416Z,81.56
2023-04-20T17:54:57.829Z,81.08
2023-04-20T17:57:44.737Z,80.01
2023-04-20T18:00:31.673Z,80.00
2023-04-20T18:03:20.070Z,80.77
2023-04-20T18:06:07.267Z,80.09
2023-04-20T18:08:56.279Z,79.57
2023-04-20T18:11:43.297Z,79.86
2023-04-20T18:14:30.287Z,80.48
2023-04-20T18:17:17.231Z,80.32
2023-04-20T18:20:05.905Z,80.23
2023-04-20T18:22:52.862Z,80.67
2023-04-20T18:25:42.109Z,82.05
2023-04-20T18:28:29.342Z,82.31
2023-04-20T18:31:16.601Z,82.43
2023-04-20T18:34:04.130Z,81.55
2023-04-20T18:36:51.216Z,82.26
2023-04-20T18:39:39.215Z,83.01
2023-04-20T18:42:26.265Z,83.20
2023-04-20T18:45:13.624Z,83.43
2023-04-20T18:48:00.625Z,83.53
2023-04-20T18:50:48.143Z,83.43
2023-04-20T18:53:35.396Z,83.29
2023-04-20T18:56:22.311Z,84.16
2023-04-20T18:59:10.763Z,84.21
2023-04-20T19:01:57.695Z,83.70
2023-04-20T19:04:44.668Z,83.88
2023-04-20T19:07:31.649Z,83.95
2023-04-20T19:10:18.642Z,83.94
2023-04-20T19:13:05.619Z,81.42
2023-04-20T19:15:57.659Z,81.58
2023-04-20T19:18:46.704Z,80.26
2023-04-20T19:21:33.972Z,80.20
2023-04-20T19:24:21.040Z,80.72
2023-04-20T19:27:08.998Z,79.63
2023-04-20T19:29:55.931Z,81.26
2023-04-20T19:32:42.815Z,81.99
2023-04-20T19:35:29.794Z,81.53
2023-04-20T19:38:24.452Z,82.50
2023-04-20T19:41:11.471Z,82.48
2023-04-20T19:43:59.432Z,83.43
2023-04-20T19:46:46.438Z,84.53
2023-04-20T19:49:33.424Z,85.37
2023-04-20T19:52:20.441Z,85.46
2023-04-20T19:55:07.996Z,86.09
2023-04-20T19:57:54.889Z,87.07
2023-04-20T20:00:41.838Z,88.10
2023-04-20T20:03:28.875Z,88.34
2023-04-20T20:06:16.397Z,87.70
2023-04-20T20:09:05.915Z,88.14
2023-04-20T20:11:52.812Z,88.13
2023-04-20T20:14:39.711Z,88.11
2023-04-20T20:17:26.966Z,87.86
2023-04-20T20:20:15.422Z,87.67
2023-04-20T20:23:02.328Z,87.75
2023-04-20T20:25:49.242Z,87.41
2023-04-20T20:28:36.308Z,86.84
2023-04-20T20:31:23.305Z,87.42
2023-04-20T20:34:10.392Z,87.20
2023-04-20T20:36:58.600Z,86.41
2023-04-20T20:39:45.839Z,86.64
2023-04-20T20:42:33.709Z,87.21
2023-04-20T20:45:21.881Z,86.62
2023-04-20T20:48:08.944Z,87.15
2023-04-20T20:50:55.980Z,87.19
2023-04-20T20:53:43.279Z,86.80
2023-04-20T20:56:30.389Z,88.06
2023-04-20T20:59:17.502Z,87.53
2023-04-20T21:02:04.735Z,87.42
2023-04-20T21:04:51.871Z,88.42
2023-04-20T21:07:39.192Z,88.29
2023-04-20T21:10:26.206Z,87.28
2023-04-20T21:13:13.110Z,88.13
2023-04-20T21:16:00.033Z,87.50
2023-04-20T21:18:47.027Z,87.46
2023-04-20T21:21:34.283Z,86.95
2023-04-20T21:24:21.237Z,87.11
2023-04-20T21:27:08.162Z,86.76
2023-04-20T21:29:55.176Z,86.57
2023-04-20T21:32:42.061Z,86.33
2023-04-20T21:35:29.015Z,86.27
2023-04-20T21:38:15.974Z,86.96
2023-04-20T21:41:03.055Z,86.68
2023-04-20T21:43:52.249Z,87.01
2023-04-20T21:46:39.315Z,87.49
2023-04-20T21:49:26.328Z,87.04
2023-04-20T21:52:13.320Z,86.78
2023-04-20T21:55:00.283Z,86.61
2023-04-20T21:57:47.265Z,87.47
2023-04-20T22:00:34.217Z,86.92
2023-04-20T22:03:21.334Z,87.21
2023-04-20T22:06:08.623Z,86.57
2023-04-20T22:08:56.460Z,86.05
2023-04-20T22:11:43.469Z,86.29
2023-04-20T22:14:30.492Z,86.60
2023-04-20T22:17:17.799Z,86.02
2023-04-20T22:20:10.421Z,86.77
2023-04-20T22:22:57.760Z,86.73
2023-04-20T22:25:44.751Z,87.31
2023-04-20T22:28:32.080Z,87.48
2023-04-20T22:31:19.258Z,86.99
2023-04-20T22:34:06.187Z,86.93
2023-04-20T22:36:53.199Z,86.24
2023-04-20T22:39:40.141Z,87.02
2023-04-20T22:42:27.181Z,87.30
2023-04-20T22:45:14.164Z,87.96
2023-04-20T22:48:01.645Z,87.60
2023-04-20T22:50:48.653Z,88.70
2023-04-20T22:53:35.624Z,89.45
2023-04-20T22:56:24.497Z,90.02
2023-04-20T22:59:11.458Z,89.29
2023-04-20T23:01:58.457Z,89.82
2023-04-20T23:04:45.723Z,91.09
2023-04-20T23:07:33.376Z,90.85
2023-04-20T23:10:20.905Z,90.16
2023-04-20T23:13:08.075Z,89.19
2023-04-20T23:15:55.101Z,90.39
2023-04-20T23:18:42.036Z,89.48
2023-04-20T23:21:29.144Z,90.17
2023-04-20T23:24:16.067Z,89.15
2023-04-20T23:27:03.476Z,89.50
2023-04-20T23:29:50.390Z,89.20
2023-04-20T23:32:37.933Z,89.52
2023-04-20T23:35:24.925Z,90.09
2023-04-20T23:38:11.868Z,89.57
2023-04-20T23:40:58.974Z,89.69
2023-04-20T23:43:45.953Z,89.87
2023-04-20T23:46:34.398Z,89.44
2023-04-20T23:49:21.598Z,88.50
2023-04-20T23:52:08.673Z,89.03
2023-04-20T23:54:55.769Z,88.65
2023-04-20T23:57:42.687Z,88.83
